Aylah — JYA525 — position and weather

sailwx.info

Track history (hours):
 
Tides and Currents Weather Stations Pressure Air Temp Water Temp Dewpoint Dewpoint Depression Visibility Wind Speed Wind Dir Waves Ship Positions

Aylah

Last reported at 2017-Sep-24 19:07 UTC. Time now 2017-Oct-20 12:30 UTC.
Position N 36°07' E 014°42'.
Warning: this ship's position is 25 days out of date.

Length 96 m; draft 3.5 m.

Type: Ship. MMSI: 438037900.

Date/timePositionNaut miles runAvg speedWind from/ knotsBaromVisibWave heightAir tempDewpointWater temp
2017-Sep-24 19:07N 36°07' E 014°42'314.9
2017-Sep-24 18:57N 36°07' E 014°39'714.8
2017-Sep-24 18:31N 36°10' E 014°32'714.9
2017-Sep-24 18:00N 36°13' E 014°23'815.0
2017-Sep-24 17:30N 36°16' E 014°14'815.0
2017-Sep-24 16:59N 36°19' E 014°06'714.8
2017-Sep-24 16:30N 36°22' E 013°58'914.8
2017-Sep-24 15:55N 36°26' E 013°48'  
2017-Sep-21 01:09N 36°08' W 005°26'0 0.2
2017-Sep-21 00:56N 36°08' W 005°26'0 0.4
2017-Sep-21 00:22N 36°08' W 005°26'0 0.0
2017-Sep-20 23:54N 36°08' W 005°26'1 2.6
2017-Sep-20 23:30N 36°09' W 005°26'4 8.1
2017-Sep-20 23:00N 36°05' W 005°23'714.3
2017-Sep-20 22:31N 35°59' W 005°25'714.0
2017-Sep-20 22:00N 35°53' W 005°31'0 0.2
2017-Sep-20 19:56N 35°53' W 005°31'3 7.5
2017-Sep-20 19:30N 35°56' W 005°30'511.2
2017-Sep-20 19:01N 36°00' W 005°26'5 1.7
2017-Sep-20 16:08N 36°05' W 005°23'214.9
2017-Sep-20 16:00N 36°03' W 005°24'714.6
2017-Sep-20 15:30N 35°57' W 005°29'4 0.3
2017-Sep-20 01:22N 35°53' W 005°31'513.7
2017-Sep-20 01:01N 35°58' W 005°29'713.0
2017-Sep-20 00:31N 36°03' W 005°24'610.7
2017-Sep-19 23:59N 36°09' W 005°26'4 2.5
2017-Sep-19 22:12N 36°05' W 005°23'314.5
2017-Sep-19 22:01N 36°02' W 005°24'1015.2
2017-Sep-19 21:21N 35°54' W 005°31'1 0.4
2017-Sep-19 19:07N 35°53' W 005°31'311.8
2017-Sep-19 18:51N 35°56' W 005°29'410.9
2017-Sep-19 18:30N 35°59' W 005°27'611.1
2017-Sep-19 18:00N 36°04' W 005°24'4 8.6
2017-Sep-19 17:31N 36°08' W 005°26'0 0.3
2017-Sep-19 17:01N 36°08' W 005°26'0 0.0
2017-Sep-19 16:18N 36°08' W 005°26'4 5.9
2017-Sep-19 15:37N 36°05' W 005°23'215.5
2017-Sep-19 15:30N 36°03' W 005°23'815.7
2017-Sep-19 15:00N 35°56' W 005°28'4 0.3
2017-Sep-19 01:27N 35°54' W 005°31'4 9.9
2017-Sep-19 01:00N 35°58' W 005°30'611.5
2017-Sep-19 00:30N 36°02' W 005°25'4 1.7
2017-Sep-18 22:27N 36°05' W 005°23'715.2
2017-Sep-18 22:00N 35°59' W 005°25'4 1.4
2017-Sep-18 18:53N 35°56' W 005°30'510.6
2017-Sep-18 18:24N 36°00' W 005°26'410.1
2017-Sep-18 18:00N 36°04' W 005°23'1 0.3
2017-Sep-18 15:51N 36°03' W 005°23'516.1
2017-Sep-18 15:31N 35°58' W 005°26'6 0.5
2017-Sep-18 01:31N 35°53' W 005°31'311.6
2017-Sep-18 01:15N 35°56' W 005°30'412.7
2017-Sep-18 00:58N 35°59' W 005°28'612.2
2017-Sep-18 00:30N 36°04' W 005°24'5 4.3
2017-Sep-17 23:23N 36°08' W 005°26'5 5.9
2017-Sep-17 22:30N 36°04' W 005°23'713.9
2017-Sep-17 22:01N 35°58' W 005°28'2 0.7
2017-Sep-17 18:23N 35°56' W 005°30'511.2
2017-Sep-17 17:58N 36°00' W 005°26'510.6
2017-Sep-17 17:31N 36°04' W 005°23'4 3.9
2017-Sep-17 16:25N 36°08' W 005°26'3 4.5
2017-Sep-17 15:41N 36°06' W 005°23'314.4
2017-Sep-17 15:30N 36°03' W 005°23'816.6
2017-Sep-17 15:00N 35°56' W 005°29'3 0.3
2017-Sep-17 04:03N 35°54' W 005°31'311.4
2017-Sep-17 03:49N 35°56' W 005°31'410.9
2017-Sep-17 03:29N 35°59' W 005°28'612.0
2017-Sep-17 03:00N 36°04' W 005°23'6 3.1
2017-Sep-17 01:15N 36°09' W 005°26'6 8.6
2017-Sep-17 00:32N 36°03' W 005°23'015.5
2017-Sep-17 00:30N 36°03' W 005°23'815.3
2017-Sep-17 00:01N 35°57' W 005°28'4 1.0
2017-Sep-16 20:21N 35°54' W 005°31'3 6.7
2017-Sep-16 19:58N 35°56' W 005°30'511.9
2017-Sep-16 19:30N 36°00' W 005°25'611.9
2017-Sep-16 19:00N 36°06' W 005°24'3 2.3
2017-Sep-16 17:47N 36°08' W 005°26'7 7.6
2017-Sep-16 16:56N 36°02' W 005°22'614.0
2017-Sep-16 16:31N 35°58' W 005°27'3 0.2
2017-Sep-16 00:23N 35°56' W 005°30'512.0
2017-Sep-16 00:00N 36°00' W 005°27'6 3.2
2017-Sep-15 21:57N 36°06' W 005°23'614.1
2017-Sep-15 21:30N 35°60' W 005°24'815.5
2017-Sep-15 21:00N 35°54' W 005°31'3 1.0
2017-Sep-15 18:30N 35°56' W 005°30'611.7
2017-Sep-15 18:00N 36°01' W 005°26'3 0.9
2017-Sep-15 15:21N 36°03' W 005°23'515.8
2017-Sep-15 15:00N 35°58' W 005°26'3 0.2
2017-Sep-15 00:42N 35°56' W 005°30'212.5
2017-Sep-15 00:30N 35°58' W 005°28'9 3.5
2017-Sep-14 21:52N 36°07' W 005°23'411.4
2017-Sep-14 21:31N 36°03' W 005°23'815.5
2017-Sep-14 21:00N 35°56' W 005°29'  
Track history (hours):
 
Tides and Currents Weather Stations Pressure Air Temp Water Temp Dewpoint Dewpoint Depression Visibility Wind Speed Wind Dir Waves Ship Positions

Aylah

Last reported at 2017-Sep-24 19:07 UTC. Time now 2017-Oct-20 12:30 UTC.
Position N 36°07' E 014°42'.
Warning: this ship's position is 25 days out of date.

Length 96 m; draft 3.5 m.

Type: Ship. MMSI: 438037900.

Date/timePositionNaut miles runAvg speedWind from/ knotsBaromVisibWave heightAir tempDewpointWater temp
2017-Sep-24 19:07N 36°07' E 014°42'314.9
2017-Sep-24 18:57N 36°07' E 014°39'714.8
2017-Sep-24 18:31N 36°10' E 014°32'714.9
2017-Sep-24 18:00N 36°13' E 014°23'815.0
2017-Sep-24 17:30N 36°16' E 014°14'815.0
2017-Sep-24 16:59N 36°19' E 014°06'714.8
2017-Sep-24 16:30N 36°22' E 013°58'914.8
2017-Sep-24 15:55N 36°26' E 013°48'  
2017-Sep-21 01:09N 36°08' W 005°26'0 0.2
2017-Sep-21 00:56N 36°08' W 005°26'0 0.4
2017-Sep-21 00:22N 36°08' W 005°26'0 0.0
2017-Sep-20 23:54N 36°08' W 005°26'1 2.6
2017-Sep-20 23:30N 36°09' W 005°26'4 8.1
2017-Sep-20 23:00N 36°05' W 005°23'714.3
2017-Sep-20 22:31N 35°59' W 005°25'714.0
2017-Sep-20 22:00N 35°53' W 005°31'0 0.2
2017-Sep-20 19:56N 35°53' W 005°31'3 7.5
2017-Sep-20 19:30N 35°56' W 005°30'511.2
2017-Sep-20 19:01N 36°00' W 005°26'5 1.7
2017-Sep-20 16:08N 36°05' W 005°23'214.9
2017-Sep-20 16:00N 36°03' W 005°24'714.6
2017-Sep-20 15:30N 35°57' W 005°29'4 0.3
2017-Sep-20 01:22N 35°53' W 005°31'513.7
2017-Sep-20 01:01N 35°58' W 005°29'713.0
2017-Sep-20 00:31N 36°03' W 005°24'610.7
2017-Sep-19 23:59N 36°09' W 005°26'4 2.5
2017-Sep-19 22:12N 36°05' W 005°23'314.5
2017-Sep-19 22:01N 36°02' W 005°24'1015.2
2017-Sep-19 21:21N 35°54' W 005°31'1 0.4
2017-Sep-19 19:07N 35°53' W 005°31'311.8
2017-Sep-19 18:51N 35°56' W 005°29'410.9
2017-Sep-19 18:30N 35°59' W 005°27'611.1
2017-Sep-19 18:00N 36°04' W 005°24'4 8.6
2017-Sep-19 17:31N 36°08' W 005°26'0 0.3
2017-Sep-19 17:01N 36°08' W 005°26'0 0.0
2017-Sep-19 16:18N 36°08' W 005°26'4 5.9
2017-Sep-19 15:37N 36°05' W 005°23'215.5
2017-Sep-19 15:30N 36°03' W 005°23'815.7
2017-Sep-19 15:00N 35°56' W 005°28'4 0.3
2017-Sep-19 01:27N 35°54' W 005°31'4 9.9
2017-Sep-19 01:00N 35°58' W 005°30'611.5
2017-Sep-19 00:30N 36°02' W 005°25'4 1.7
2017-Sep-18 22:27N 36°05' W 005°23'715.2
2017-Sep-18 22:00N 35°59' W 005°25'4 1.4
2017-Sep-18 18:53N 35°56' W 005°30'510.6
2017-Sep-18 18:24N 36°00' W 005°26'410.1
2017-Sep-18 18:00N 36°04' W 005°23'1 0.3
2017-Sep-18 15:51N 36°03' W 005°23'516.1
2017-Sep-18 15:31N 35°58' W 005°26'6 0.5
2017-Sep-18 01:31N 35°53' W 005°31'311.6
2017-Sep-18 01:15N 35°56' W 005°30'412.7
2017-Sep-18 00:58N 35°59' W 005°28'612.2
2017-Sep-18 00:30N 36°04' W 005°24'5 4.3
2017-Sep-17 23:23N 36°08' W 005°26'5 5.9
2017-Sep-17 22:30N 36°04' W 005°23'713.9
2017-Sep-17 22:01N 35°58' W 005°28'2 0.7
2017-Sep-17 18:23N 35°56' W 005°30'511.2
2017-Sep-17 17:58N 36°00' W 005°26'510.6
2017-Sep-17 17:31N 36°04' W 005°23'4 3.9
2017-Sep-17 16:25N 36°08' W 005°26'3 4.5
2017-Sep-17 15:41N 36°06' W 005°23'314.4
2017-Sep-17 15:30N 36°03' W 005°23'816.6
2017-Sep-17 15:00N 35°56' W 005°29'3 0.3
2017-Sep-17 04:03N 35°54' W 005°31'311.4
2017-Sep-17 03:49N 35°56' W 005°31'410.9
2017-Sep-17 03:29N 35°59' W 005°28'612.0
2017-Sep-17 03:00N 36°04' W 005°23'6 3.1
2017-Sep-17 01:15N 36°09' W 005°26'6 8.6
2017-Sep-17 00:32N 36°03' W 005°23'015.5
2017-Sep-17 00:30N 36°03' W 005°23'815.3
2017-Sep-17 00:01N 35°57' W 005°28'4 1.0
2017-Sep-16 20:21N 35°54' W 005°31'3 6.7
2017-Sep-16 19:58N 35°56' W 005°30'511.9
2017-Sep-16 19:30N 36°00' W 005°25'611.9
2017-Sep-16 19:00N 36°06' W 005°24'3 2.3
2017-Sep-16 17:47N 36°08' W 005°26'7 7.6
2017-Sep-16 16:56N 36°02' W 005°22'614.0
2017-Sep-16 16:31N 35°58' W 005°27'3 0.2
2017-Sep-16 00:23N 35°56' W 005°30'512.0
2017-Sep-16 00:00N 36°00' W 005°27'6 3.2
2017-Sep-15 21:57N 36°06' W 005°23'614.1
2017-Sep-15 21:30N 35°60' W 005°24'815.5
2017-Sep-15 21:00N 35°54' W 005°31'3 1.0
2017-Sep-15 18:30N 35°56' W 005°30'611.7
2017-Sep-15 18:00N 36°01' W 005°26'3 0.9
2017-Sep-15 15:21N 36°03' W 005°23'515.8
2017-Sep-15 15:00N 35°58' W 005°26'3 0.2
2017-Sep-15 00:42N 35°56' W 005°30'212.5
2017-Sep-15 00:30N 35°58' W 005°28'9 3.5
2017-Sep-14 21:52N 36°07' W 005°23'411.4
2017-Sep-14 21:31N 36°03' W 005°23'815.5
2017-Sep-14 21:00N 35°56' W 005°29'  

Dump ship's entire track history